Time;durP1;ratioP1;P1;durP2;ratioP2;P2;SDS_P1;SDS_P2;PMS_P1;PMS_P2;Temp;Humidity;BMP_temperature;BMP_pressure;BME280_temperature;BME280_humidity;BME280_pressure;Samples;Min_cycle;Max_cycle;Signal;HPM_P1;HPM_P2
2021/10/06 00:06:12;;;;;;;5.95;1.13;;;;;;;10.81;88.33;100300.06;20909877;28;20079;-71
2021/10/06 00:16:15;;;;;;;5.50;1.00;;;;;;;10.82;88.30;100319.25;20909589;28;20045;-70
2021/10/06 00:26:17;;;;;;;8.45;1.00;;;;;;;10.85;87.78;100333.19;20908751;28;20132;-70
2021/10/06 00:36:19;;;;;;;6.35;1.10;;;;;;;10.83;87.14;100334.97;20907430;28;20411;-71
2021/10/06 00:46:21;;;;;;;7.57;0.90;;;;;;;10.76;86.54;100362.16;20905795;28;20049;-71
2021/10/06 00:56:23;;;;;;;5.75;1.00;;;;;;;10.91;86.84;100368.88;20906241;28;20081;-70
2021/10/06 01:06:25;;;;;;;3.20;1.00;;;;;;;11.11;85.42;100360.66;20887184;28;20056;-70
2021/10/06 01:16:27;;;;;;;6.07;1.27;;;;;;;11.24;83.42;100372.63;20905759;28;20049;-71
2021/10/06 01:26:29;;;;;;;6.65;1.10;;;;;;;11.35;83.60;100373.28;20904184;28;20052;-71
2021/10/06 01:36:30;;;;;;;3.55;0.90;;;;;;;11.38;83.60;100386.34;20902668;28;20041;-71
2021/10/06 01:46:32;;;;;;;3.65;1.20;;;;;;;11.32;83.36;100389.09;20902508;28;20045;-70
2021/10/06 01:56:34;;;;;;;4.60;1.20;;;;;;;11.37;83.64;100381.13;20884693;28;20110;-71
2021/10/06 02:06:36;;;;;;;6.45;1.30;;;;;;;11.39;82.89;100379.34;20882972;28;20415;-71
2021/10/06 02:16:38;;;;;;;6.38;1.20;;;;;;;11.20;83.62;100378.81;20901088;28;20103;-71
2021/10/06 02:26:40;;;;;;;4.40;1.10;;;;;;;11.09;83.68;100396.50;20900461;28;20041;-71
2021/10/06 02:36:42;;;;;;;4.40;1.23;;;;;;;10.84;85.75;100391.69;20899507;28;20072;-71
2021/10/06 02:46:44;;;;;;;6.28;1.35;;;;;;;10.83;85.05;100399.56;20899565;28;20053;-71
2021/10/06 02:56:45;;;;;;;5.70;1.10;;;;;;;10.77;85.79;100400.53;20898327;28;20049;-71
2021/10/06 03:06:47;;;;;;;5.97;1.17;;;;;;;10.73;86.46;100404.09;20908789;28;20045;-71
2021/10/06 03:16:49;;;;;;;3.90;1.10;;;;;;;10.52;87.17;100411.41;20914073;28;20483;-71
2021/10/06 03:26:51;;;;;;;6.70;1.05;;;;;;;10.52;87.27;100434.97;20913406;28;20095;-71
2021/10/06 03:36:53;;;;;;;5.03;1.60;;;;;;;10.47;86.92;100439.41;20912724;28;20037;-71
2021/10/06 03:46:55;;;;;;;6.05;1.90;;;;;;;10.38;87.36;100442.16;20912298;28;20430;-70
2021/10/06 03:56:57;;;;;;;6.90;1.20;;;;;;;10.51;85.55;100456.78;20911057;28;20095;-70
2021/10/06 04:06:59;;;;;;;5.88;1.50;;;;;;;10.64;86.05;100482.81;20909507;28;20045;-70
2021/10/06 04:17:01;;;;;;;6.45;1.65;;;;;;;10.82;85.92;100495.59;20909482;28;20483;-70
2021/10/06 04:27:03;;;;;;;6.10;1.38;;;;;;;10.91;84.69;100498.09;20891675;28;20416;-71
2021/10/06 04:37:05;;;;;;;7.25;1.63;;;;;;;11.00;83.30;100505.81;20908184;28;20052;-71
2021/10/06 04:47:07;;;;;;;5.00;1.23;;;;;;;11.09;83.76;100519.66;20908025;28;20467;-70
2021/10/06 04:57:09;;;;;;;10.82;1.55;;;;;;;11.22;83.26;100523.81;20908364;28;20454;-72
2021/10/06 05:07:11;;;;;;;8.07;1.67;;;;;;;11.12;84.08;100532.72;20905841;28;20052;-71
2021/10/06 05:17:12;;;;;;;9.68;1.67;;;;;;;11.08;84.57;100533.66;20905793;28;20041;-71
2021/10/06 05:27:14;;;;;;;12.10;2.63;;;;;;;11.07;84.02;100543.28;20904683;28;20049;-71
2021/10/06 05:37:16;;;;;;;7.70;1.85;;;;;;;11.08;84.73;100541.53;20886012;28;20045;-71
2021/10/06 05:47:18;;;;;;;6.45;1.63;;;;;;;11.09;83.90;100543.25;20902929;28;20049;-71
2021/10/06 05:57:20;;;;;;;8.02;1.75;;;;;;;11.16;83.90;100551.00;20902967;28;20414;-71
2021/10/06 06:07:21;;;;;;;9.18;1.33;;;;;;;11.21;83.24;100579.72;20901549;28;20041;-71
2021/10/06 06:17:23;;;;;;;5.15;1.50;;;;;;;11.27;82.84;100588.38;20902375;28;20056;-71
2021/10/06 06:27:25;;;;;;;6.10;1.70;;;;;;;11.39;83.16;100591.69;20900965;28;20048;-71
2021/10/06 06:37:27;;;;;;;8.98;1.85;;;;;;;11.22;82.62;100591.97;20905170;28;20044;-71
2021/10/06 06:47:28;;;;;;;6.97;1.40;;;;;;;11.17;82.09;100609.53;20917710;28;20056;-71
2021/10/06 06:57:30;;;;;;;9.95;1.88;;;;;;;11.42;81.16;100623.97;20916276;28;20045;-71
2021/10/06 07:07:32;;;;;;;9.73;2.20;;;;;;;11.55;80.61;100635.16;20963114;28;20074;-71
2021/10/06 07:17:34;;;;;;;7.47;1.55;;;;;;;11.70;79.92;100642.75;20998644;28;20092;-71
2021/10/06 07:27:36;;;;;;;11.05;1.90;;;;;;;11.65;80.31;100638.50;20998296;28;20053;-71
2021/10/06 07:37:38;;;;;;;9.25;1.88;;;;;;;12.16;78.24;100672.63;20996825;28;20567;-71
2021/10/06 07:47:44;;;;;;;9.90;1.60;;;;;;;12.00;77.96;100686.00;20996280;28;20053;-71
2021/10/06 07:57:46;;;;;;;5.78;1.30;;;;;;;11.77;78.25;100695.97;20995717;28;20049;-70
2021/10/06 08:07:47;;;;;;;5.78;1.10;;;;;;;12.17;77.58;100705.84;20993846;28;20041;-70
2021/10/06 08:17:49;;;;;;;6.28;1.73;;;;;;;12.33;76.46;100712.56;20994715;28;20090;-71
2021/10/06 08:27:53;;;;;;;8.30;1.25;;;;;;;12.37;75.68;100735.25;20991826;28;20052;-70
2021/10/06 08:37:55;;;;;;;8.07;1.50;;;;;;;12.52;77.16;100745.47;20992416;28;20090;-70
2021/10/06 08:47:57;;;;;;;5.38;1.27;;;;;;;12.78;75.25;100736.22;20992267;28;20094;-70
2021/10/06 08:58:01;;;;;;;7.22;1.65;;;;;;;12.87;73.08;100754.44;20991506;28;20044;-70
2021/10/06 09:08:05;;;;;;;9.10;1.20;;;;;;;13.10;71.91;100754.88;20988589;28;20067;-70
2021/10/06 09:18:11;;;;;;;6.63;1.30;;;;;;;13.12;70.90;100759.22;20987935;28;20106;-71
2021/10/06 09:28:38;;;;;;;15.32;1.70;;;;;;;13.26;71.31;100759.84;20970365;28;20464;-71
2021/10/06 09:39:06;;;;;;;6.95;1.27;;;;;;;13.62;70.09;100752.06;20959261;28;20098;-70
2021/10/06 09:49:18;;;;;;;5.70;1.40;;;;;;;13.88;68.31;100767.25;20987141;28;20103;-70
2021/10/06 09:59:20;;;;;;;5.35;1.45;;;;;;;14.03;70.43;100762.47;20970852;28;20047;-70
2021/10/06 10:09:21;;;;;;;8.60;1.77;;;;;;;13.96;69.23;100757.41;20989414;28;20045;-69
2021/10/06 10:19:26;;;;;;;7.85;1.40;;;;;;;14.02;67.96;100758.09;20986259;28;20052;-70
2021/10/06 10:29:32;;;;;;;5.68;1.65;;;;;;;14.70;65.02;100759.06;20986267;28;20094;-70
2021/10/06 10:39:34;;;;;;;7.88;1.20;;;;;;;14.86;63.71;100763.00;20985638;28;20049;-69
2021/10/06 10:49:52;;;;;;;6.65;1.33;;;;;;;14.28;63.91;100777.69;20985148;28;20076;-69
2021/10/06 10:59:57;;;;;;;6.80;1.70;;;;;;;14.41;63.98;100792.25;20984220;28;20049;-69
2021/10/06 11:10:00;;;;;;;8.43;1.43;;;;;;;14.23;63.88;100776.91;20976350;28;20561;-69
2021/10/06 11:20:02;;;;;;;5.82;1.38;;;;;;;14.65;62.58;100766.22;20983517;28;20235;-70
2021/10/06 11:30:04;;;;;;;4.45;1.17;;;;;;;14.87;62.55;100762.09;20996028;28;20048;-70
2021/10/06 11:40:15;;;;;;;5.15;1.40;;;;;;;15.18;63.52;100754.16;20999977;28;20060;-69
2021/10/06 11:50:18;;;;;;;10.13;1.20;;;;;;;15.02;61.95;100753.75;20998006;28;20053;-70
2021/10/06 12:00:20;;;;;;;8.40;2.10;;;;;;;14.55;63.46;100763.81;20997419;28;20409;-70
2021/10/06 12:10:22;;;;;;;7.70;1.63;;;;;;;14.94;65.77;100766.28;20997141;28;20489;-70
2021/10/06 12:20:24;;;;;;;4.60;1.17;;;;;;;15.03;61.84;100759.88;20995192;28;20502;-69
2021/10/06 12:30:28;;;;;;;7.50;1.20;;;;;;;14.83;61.97;100753.41;20975537;28;20048;-68
2021/10/06 12:40:44;;;;;;;8.10;1.40;;;;;;;15.02;61.06;100763.44;20975282;28;20048;-68
2021/10/06 12:50:54;;;;;;;;;;;;;;;14.59;63.56;100762.84;20992547;28;20110;-68
2021/10/06 13:00:56;;;;;;;5.40;1.50;;;;;;;14.32;65.48;100774.03;20990652;28;20419;-68
2021/10/06 13:10:58;;;;;;;11.30;1.50;;;;;;;14.50;65.45;100783.28;20989768;28;20123;-67
2021/10/06 13:21:00;;;;;;;9.65;1.73;;;;;;;14.84;66.58;100780.63;20988843;28;20048;-70
2021/10/06 13:31:07;;;;;;;6.45;1.40;;;;;;;14.71;67.30;100779.22;20986842;28;20135;-69
2021/10/06 13:41:10;;;;;;;4.78;1.35;;;;;;;14.83;65.83;100784.19;20987368;28;20123;-69
2021/10/06 13:51:12;;;;;;;6.22;1.40;;;;;;;14.49;66.17;100806.16;20986707;28;20519;-70
2021/10/06 14:01:14;;;;;;;6.68;1.30;;;;;;;14.23;66.49;100805.88;20986439;28;20082;-70
2021/10/06 14:11:16;;;;;;;5.50;1.55;;;;;;;14.06;70.19;100815.06;20981479;28;20049;-70
2021/10/06 14:21:18;;;;;;;8.55;2.00;;;;;;;13.66;75.19;100824.78;20986539;28;20063;-69
2021/10/06 14:31:20;;;;;;;9.98;2.00;;;;;;;12.83;82.14;100868.41;20985978;28;20094;-68
2021/10/06 14:41:22;;;;;;;8.75;1.85;;;;;;;11.53;86.01;100923.63;20984871;28;20053;-68
2021/10/06 14:51:24;;;;;;;7.10;1.55;;;;;;;11.57;82.40;100893.84;20904509;28;20186;-67
2021/10/06 15:01:25;;;;;;;4.60;1.50;;;;;;;11.84;84.19;100889.19;20907560;28;20045;-68
2021/10/06 15:11:28;;;;;;;6.72;2.10;;;;;;;12.12;86.56;100901.91;20930219;28;20052;-68
2021/10/06 15:21:30;;;;;;;11.60;5.25;;;;;;;12.41;87.49;100901.50;20997899;28;20509;-68
2021/10/06 15:31:32;;;;;;;6.28;2.63;;;;;;;12.50;88.63;100907.50;20997045;28;20460;-67
2021/10/06 15:41:34;;;;;;;6.75;2.97;;;;;;;12.36;87.18;100898.97;20996938;28;20066;-68
2021/10/06 15:51:40;;;;;;;7.93;2.60;;;;;;;12.25;87.40;100906.13;20977826;28;20049;-68
2021/10/06 16:01:42;;;;;;;7.78;2.70;;;;;;;12.20;87.99;100900.06;20995105;28;20037;-67
2021/10/06 16:11:44;;;;;;;7.20;3.20;;;;;;;12.10;88.00;100911.59;20993995;28;20048;-68
2021/10/06 16:21:46;;;;;;;6.75;2.63;;;;;;;11.99;89.35;100923.09;20992918;28;20448;-68
2021/10/06 16:31:48;;;;;;;7.75;2.38;;;;;;;12.00;88.35;100939.72;20991564;28;20048;-68
2021/10/06 16:41:50;;;;;;;6.07;2.30;;;;;;;11.98;89.31;100937.13;20974233;28;20048;-67
2021/10/06 16:52:12;;;;;;;10.73;3.65;;;;;;;11.87;89.56;100959.13;20991197;28;20127;-67
2021/10/06 17:02:14;;;;;;;8.75;2.97;;;;;;;11.82;88.49;100972.28;20970352;28;20051;-67
2021/10/06 17:12:16;;;;;;;8.80;3.13;;;;;;;11.70;88.83;100989.00;20989417;28;20535;-68
2021/10/06 17:22:37;;;;;;;7.30;2.58;;;;;;;11.66;88.21;101008.28;20914915;28;20077;-68
2021/10/06 17:32:40;;;;;;;7.03;1.98;;;;;;;11.48;87.93;101017.19;20903401;28;20123;-69
2021/10/06 17:42:41;;;;;;;6.30;2.03;;;;;;;11.46;88.11;101026.84;20904949;28;20049;-68
2021/10/06 17:52:44;;;;;;;4.53;2.10;;;;;;;11.32;88.88;101048.84;20903190;28;20049;-68
2021/10/06 18:03:06;;;;;;;10.07;3.40;;;;;;;11.20;88.71;101052.41;20902300;28;20046;-68
2021/10/06 18:13:08;;;;;;;9.77;2.80;;;;;;;10.90;88.75;101057.00;20902533;28;20457;-68
2021/10/06 18:23:10;;;;;;;6.93;2.20;;;;;;;10.86;88.63;101068.38;20901537;28;20090;-68
2021/10/06 18:33:16;;;;;;;8.02;2.40;;;;;;;10.94;89.64;101073.56;20887434;28;20052;-68
2021/10/06 18:43:18;;;;;;;8.32;2.58;;;;;;;10.87;90.15;101101.53;20918033;28;20555;-67
2021/10/06 18:53:30;;;;;;;6.32;2.55;;;;;;;11.08;89.62;101102.31;20916013;28;20513;-68
2021/10/06 19:03:31;;;;;;;7.55;2.40;;;;;;;11.11;89.88;101124.09;20914303;28;20407;-68
2021/10/06 19:13:34;;;;;;;6.35;2.67;;;;;;;11.16;89.60;101118.84;20945951;28;20448;-69
2021/10/06 19:23:37;;;;;;;8.93;3.93;;;;;;;11.18;89.46;101125.81;20978969;28;20048;-68
2021/10/06 19:33:39;;;;;;;10.38;3.97;;;;;;;11.07;90.38;101121.50;20979407;28;20037;-68
2021/10/06 19:43:41;;;;;;;7.75;3.17;;;;;;;11.18;89.39;101145.91;20994684;28;20102;-68
2021/10/06 19:53:43;;;;;;;8.10;3.70;;;;;;;11.09;90.52;101145.97;20995043;28;20044;-67
2021/10/06 20:03:45;;;;;;;9.73;3.17;;;;;;;11.02;90.19;101156.50;20976291;28;20481;-67
2021/10/06 20:13:47;;;;;;;9.52;3.38;;;;;;;10.91;90.13;101136.47;20993637;28;20460;-69
2021/10/06 20:23:49;;;;;;;9.77;2.95;;;;;;;10.79;91.81;101142.66;20992489;28;20048;-67
2021/10/06 20:43:52;;;;;;;14.55;3.70;;;;;;;10.70;92.36;101159.25;20982881;28;20041;-68
2021/10/06 20:53:54;;;;;;;9.55;3.58;;;;;;;10.65;92.41;101168.03;20968458;28;20048;-69
2021/10/06 21:03:59;;;;;;;11.17;4.10;;;;;;;10.73;92.40;101169.75;20971264;28;20040;-70
2021/10/06 21:14:01;;;;;;;12.32;3.65;;;;;;;10.83;92.08;101178.44;20968646;28;20120;-69
2021/10/06 21:24:03;;;;;;;9.40;3.80;;;;;;;10.89;92.42;101188.88;20986508;28;20048;-68
2021/10/06 21:34:07;;;;;;;9.57;3.95;;;;;;;10.94;92.07;101202.81;20985831;28;20045;-68
2021/10/06 21:44:09;;;;;;;12.52;4.82;;;;;;;10.95;91.96;101201.06;20968670;28;20041;-68
2021/10/06 21:54:11;;;;;;;11.68;3.83;;;;;;;10.93;92.09;101206.34;20987479;28;20052;-68
2021/10/06 22:04:13;;;;;;;9.60;3.92;;;;;;;10.92;92.23;101207.22;20984502;28;20044;-68
2021/10/06 22:14:15;;;;;;;7.47;3.22;;;;;;;10.93;91.77;101205.47;20984002;28;20098;-68
2021/10/06 22:24:17;;;;;;;8.52;3.30;;;;;;;10.97;91.83;101215.03;20982725;28;20132;-68
2021/10/06 22:34:19;;;;;;;9.85;3.92;;;;;;;10.97;92.01;101215.03;20965031;28;20040;-68
2021/10/06 22:44:21;;;;;;;6.45;3.03;;;;;;;10.89;91.07;101209.84;20982444;28;20049;-68
2021/10/06 22:54:23;;;;;;;8.25;3.65;;;;;;;10.71;93.14;101209.91;20983701;28;20052;-67
2021/10/06 23:04:25;;;;;;;8.40;3.70;;;;;;;10.69;92.55;101209.03;20982113;28;20560;-67
2021/10/06 23:14:27;;;;;;;9.25;4.20;;;;;;;10.77;92.06;101217.72;20980886;28;20074;-67
2021/10/06 23:24:30;;;;;;;10.80;3.60;;;;;;;10.73;92.11;101216.00;20973946;28;20055;-67
2021/10/06 23:34:32;;;;;;;8.30;3.58;;;;;;;10.71;92.62;101238.72;20995697;28;20457;-66
2021/10/06 23:44:34;;;;;;;8.18;4.05;;;;;;;10.72;92.57;101235.22;20995348;28;20525;-68
2021/10/06 23:54:36;;;;;;;9.38;4.28;;;;;;;10.74;93.54;101238.72;20994182;28;20048;-68
